createdAt,value
2022-10-04T00:02:17.052Z,2.67
2022-10-04T00:04:51.225Z,3.07
2022-10-04T00:07:22.483Z,7.83
2022-10-04T00:09:52.377Z,3.27
2022-10-04T00:12:22.914Z,2.60
2022-10-04T00:14:51.599Z,2.57
2022-10-04T00:17:23.963Z,2.93
2022-10-04T00:19:53.207Z,2.60
2022-10-04T00:22:22.733Z,3.00
2022-10-04T00:25:20.148Z,3.20
2022-10-04T00:28:24.795Z,3.50
2022-10-04T00:31:13.314Z,2.37
2022-10-04T00:33:42.651Z,2.77
2022-10-04T00:36:41.442Z,3.10
2022-10-04T00:39:40.399Z,2.87
2022-10-04T00:42:29.565Z,3.20
2022-10-04T00:44:59.892Z,3.07
2022-10-04T00:47:32.609Z,2.50
2022-10-04T00:50:10.732Z,2.50
2022-10-04T00:52:45.458Z,3.33
2022-10-04T00:55:22.879Z,2.50
2022-10-04T00:57:55.228Z,3.83
2022-10-04T01:00:25.862Z,2.67
2022-10-04T01:02:58.574Z,2.53
2022-10-04T01:05:29.899Z,2.60
2022-10-04T01:08:06.978Z,2.60
2022-10-04T01:10:39.888Z,2.40
2022-10-04T01:13:14.018Z,2.63
2022-10-04T01:15:45.856Z,2.53
2022-10-04T01:18:15.191Z,2.43
2022-10-04T01:20:54.820Z,2.77
2022-10-04T01:23:34.800Z,2.47
2022-10-04T01:26:04.374Z,2.80
2022-10-04T01:28:32.347Z,2.67
2022-10-04T01:31:00.285Z,2.53
2022-10-04T01:33:27.401Z,2.83
2022-10-04T01:35:54.265Z,2.60
2022-10-04T01:38:21.566Z,2.50
2022-10-04T01:40:54.203Z,2.20
2022-10-04T01:43:28.342Z,2.57
2022-10-04T01:46:00.459Z,2.27
2022-10-04T01:48:32.664Z,2.73
2022-10-04T01:51:06.085Z,2.70
2022-10-04T01:53:40.714Z,2.50
2022-10-04T01:56:14.448Z,2.53
2022-10-04T01:58:45.303Z,2.20
2022-10-04T02:01:16.422Z,2.43
2022-10-04T02:03:48.270Z,3.10
2022-10-04T02:06:16.812Z,2.20
2022-10-04T02:08:48.315Z,2.23
2022-10-04T02:11:21.710Z,2.27
2022-10-04T02:13:51.515Z,2.30
2022-10-04T02:16:20.810Z,2.50
2022-10-04T02:18:50.846Z,2.43
2022-10-04T02:21:19.270Z,2.57
2022-10-04T02:23:47.281Z,2.50
2022-10-04T02:26:14.229Z,2.40
2022-10-04T02:28:43.138Z,3.23
2022-10-04T02:31:29.994Z,2.47
2022-10-04T02:33:59.333Z,2.87
2022-10-04T02:36:28.537Z,2.73
2022-10-04T02:39:01.183Z,2.77
2022-10-04T02:41:32.867Z,2.40
2022-10-04T02:44:09.755Z,2.63
2022-10-04T02:46:43.327Z,3.00
2022-10-04T02:49:17.448Z,2.23
2022-10-04T02:51:50.867Z,2.70
2022-10-04T02:54:27.936Z,2.90
2022-10-04T02:56:56.095Z,2.50
2022-10-04T02:59:25.065Z,2.93
2022-10-04T03:01:54.119Z,2.10
2022-10-04T03:04:24.463Z,2.07
2022-10-04T03:06:53.198Z,2.70
2022-10-04T03:09:27.399Z,2.63
2022-10-04T03:11:56.614Z,2.90
2022-10-04T03:14:28.318Z,2.50
2022-10-04T03:16:57.532Z,3.13
2022-10-04T03:19:27.224Z,2.77
2022-10-04T03:21:57.894Z,2.87
2022-10-04T03:24:28.797Z,2.20
2022-10-04T03:26:58.462Z,2.90
2022-10-04T03:29:30.624Z,2.63
2022-10-04T03:32:00.265Z,10.60
2022-10-04T03:34:36.779Z,2.77
2022-10-04T03:37:07.252Z,3.00
2022-10-04T03:39:39.006Z,2.70
2022-10-04T03:42:12.101Z,3.03
2022-10-04T03:44:42.308Z,3.40
2022-10-04T03:47:11.186Z,2.70
2022-10-04T03:49:39.487Z,2.87
2022-10-04T03:52:13.024Z,2.87
2022-10-04T03:54:40.847Z,3.13
2022-10-04T03:57:10.045Z,2.60
2022-10-04T03:59:37.915Z,3.23
2022-10-04T04:02:12.676Z,2.70
2022-10-04T04:04:47.267Z,2.73
2022-10-04T04:07:20.090Z,3.17
2022-10-04T04:09:52.352Z,2.90
2022-10-04T04:12:24.645Z,3.33
2022-10-04T04:14:53.033Z,2.80
2022-10-04T04:17:37.440Z,2.93
2022-10-04T04:20:12.792Z,2.87
2022-10-04T04:22:44.393Z,3.30
2022-10-04T04:25:15.978Z,2.67
2022-10-04T04:27:47.128Z,3.07
2022-10-04T04:30:17.743Z,3.10
2022-10-04T04:32:50.329Z,3.10
2022-10-04T04:35:25.656Z,2.87
2022-10-04T04:38:15.089Z,3.20
2022-10-04T04:40:42.639Z,3.17
2022-10-04T04:43:17.742Z,2.47
2022-10-04T04:45:45.761Z,2.77
2022-10-04T04:48:16.605Z,3.23
2022-10-04T04:50:48.403Z,2.90
2022-10-04T04:53:18.965Z,3.00
2022-10-04T04:56:03.217Z,3.17
2022-10-04T04:58:35.678Z,2.83
2022-10-04T05:01:06.578Z,3.30
2022-10-04T05:03:35.424Z,3.10
2022-10-04T05:06:04.809Z,3.17
2022-10-04T05:08:37.152Z,3.43
2022-10-04T05:11:16.052Z,3.67
2022-10-04T05:13:47.654Z,3.73
2022-10-04T05:16:19.520Z,3.03
2022-10-04T05:18:48.495Z,3.30
2022-10-04T05:21:22.777Z,3.20
2022-10-04T05:23:49.880Z,3.97
2022-10-04T05:26:27.641Z,3.70
2022-10-04T05:28:56.444Z,3.90
2022-10-04T05:31:34.169Z,3.60
2022-10-04T05:34:17.799Z,3.13
2022-10-04T05:36:53.529Z,4.10
2022-10-04T05:39:27.526Z,4.07
2022-10-04T05:42:01.290Z,3.60
2022-10-04T05:44:29.829Z,4.03
2022-10-04T05:46:59.013Z,3.53
2022-10-04T05:49:33.508Z,3.50
2022-10-04T05:52:03.440Z,3.60
2022-10-04T05:54:34.110Z,3.30
2022-10-04T05:57:37.689Z,2.70
2022-10-04T06:00:13.046Z,3.70
2022-10-04T06:03:18.818Z,3.43
2022-10-04T06:05:52.108Z,3.70
2022-10-04T06:08:51.672Z,3.87
2022-10-04T06:11:36.904Z,3.27
2022-10-04T06:14:58.473Z,3.37
2022-10-04T06:17:41.307Z,3.17
2022-10-04T06:20:30.523Z,3.80
2022-10-04T06:23:02.339Z,3.10
2022-10-04T06:25:31.439Z,3.37
2022-10-04T06:28:12.038Z,3.10
2022-10-04T06:30:53.582Z,3.63
2022-10-04T06:33:34.451Z,3.10
2022-10-04T06:36:28.747Z,3.97
2022-10-04T06:39:29.216Z,3.40
2022-10-04T06:42:14.589Z,3.27
2022-10-04T06:45:00.871Z,3.80
2022-10-04T06:47:43.864Z,3.37
2022-10-04T06:50:22.279Z,3.90
2022-10-04T06:53:03.896Z,3.40
2022-10-04T06:56:08.393Z,3.80
2022-10-04T06:59:00.615Z,3.57
2022-10-04T07:01:30.461Z,3.57
2022-10-04T07:04:06.010Z,3.87
2022-10-04T07:06:38.157Z,3.63
2022-10-04T07:09:13.012Z,3.47
2022-10-04T07:11:47.476Z,3.37
2022-10-04T07:14:20.214Z,3.57
2022-10-04T07:16:51.284Z,7.93
2022-10-04T07:19:31.146Z,3.63
2022-10-04T07:22:12.285Z,3.60
2022-10-04T07:24:51.894Z,3.30
2022-10-04T07:27:24.612Z,3.70
2022-10-04T07:29:54.754Z,3.47
2022-10-04T07:32:24.415Z,3.83
2022-10-04T07:34:58.182Z,3.70
2022-10-04T07:37:28.291Z,4.07
2022-10-04T07:40:01.489Z,3.57
2022-10-04T07:42:35.928Z,3.70
2022-10-04T07:45:15.225Z,4.53
2022-10-04T07:47:43.224Z,3.50
2022-10-04T07:50:29.077Z,3.87
2022-10-04T07:53:02.382Z,3.80
2022-10-04T07:55:45.660Z,3.77
2022-10-04T07:58:25.890Z,3.43
2022-10-04T08:00:58.840Z,3.60
2022-10-04T08:03:37.882Z,3.10
2022-10-04T08:06:13.608Z,3.23
2022-10-04T08:08:55.588Z,2.93
2022-10-04T08:11:33.876Z,3.67
2022-10-04T08:14:16.544Z,3.60
2022-10-04T08:16:51.034Z,3.50
2022-10-04T08:19:30.852Z,3.23
2022-10-04T08:22:03.138Z,3.73
2022-10-04T08:24:35.411Z,3.77
2022-10-04T08:27:24.484Z,3.83
2022-10-04T08:30:03.202Z,3.53
2022-10-04T08:32:49.699Z,3.57
2022-10-04T08:35:32.700Z,3.43
2022-10-04T08:38:27.918Z,3.60
2022-10-04T08:41:35.688Z,3.43
2022-10-04T08:44:30.294Z,2.80
2022-10-04T08:47:29.665Z,3.20
2022-10-04T08:50:33.851Z,3.20
2022-10-04T08:53:29.034Z,3.83
2022-10-04T08:56:07.329Z,3.93
2022-10-04T08:58:51.757Z,3.03
2022-10-04T09:01:39.190Z,3.10
2022-10-04T09:04:45.246Z,3.27
2022-10-04T09:07:39.344Z,3.40
2022-10-04T09:10:36.746Z,4.63
2022-10-04T09:13:25.575Z,4.17
2022-10-04T09:15:53.755Z,3.77
2022-10-04T09:18:29.559Z,3.30
2022-10-04T09:21:01.125Z,6.90
2022-10-04T09:24:11.295Z,3.40
2022-10-04T09:26:45.931Z,3.50
2022-10-04T09:29:37.427Z,3.70
2022-10-04T09:32:44.135Z,6.13
2022-10-04T09:35:42.233Z,3.10
2022-10-04T09:38:33.507Z,3.50
2022-10-04T09:41:14.537Z,3.17
2022-10-04T09:44:24.849Z,3.53
2022-10-04T09:47:04.828Z,3.67
2022-10-04T09:49:50.554Z,3.70
2022-10-04T09:52:29.773Z,3.67
2022-10-04T09:55:24.917Z,3.30
2022-10-04T09:58:19.300Z,3.30
2022-10-04T10:00:55.346Z,3.53
2022-10-04T10:03:50.542Z,4.37
2022-10-04T10:06:35.012Z,3.50
2022-10-04T10:09:14.500Z,3.83
2022-10-04T10:12:11.313Z,3.10
2022-10-04T10:15:02.512Z,3.00
2022-10-04T10:17:40.099Z,2.90
2022-10-04T10:20:37.324Z,2.80
2022-10-04T10:23:26.420Z,3.10
2022-10-04T10:26:12.488Z,2.77
2022-10-04T10:29:18.193Z,2.60
2022-10-04T10:32:07.417Z,2.43
2022-10-04T10:34:59.471Z,3.30
2022-10-04T10:37:42.318Z,2.50
2022-10-04T10:40:31.503Z,3.00
2022-10-04T10:43:20.736Z,2.73
2022-10-04T10:46:04.723Z,2.50
2022-10-04T10:49:09.783Z,2.50
2022-10-04T10:52:14.131Z,2.30
2022-10-04T10:55:22.584Z,3.00
2022-10-04T10:58:15.530Z,2.40
2022-10-04T11:00:52.909Z,2.80
2022-10-04T11:03:34.880Z,2.90
2022-10-04T11:06:47.141Z,2.57
2022-10-04T11:09:31.559Z,2.30
2022-10-04T11:12:25.853Z,2.60
2022-10-04T11:15:20.819Z,2.70
2022-10-04T11:18:16.519Z,2.60
2022-10-04T11:21:09.259Z,2.43
2022-10-04T11:24:01.169Z,2.77
2022-10-04T11:26:49.511Z,2.37
2022-10-04T11:29:28.266Z,2.30
2022-10-04T11:32:30.278Z,2.50
2022-10-04T11:35:36.780Z,1.90
2022-10-04T11:38:12.056Z,2.00
2022-10-04T11:40:58.107Z,2.42
2022-10-04T11:43:47.448Z,2.10
2022-10-04T11:46:35.914Z,2.30
2022-10-04T11:49:16.905Z,2.33
2022-10-04T11:52:19.446Z,2.40
2022-10-04T11:55:01.826Z,2.17
2022-10-04T11:57:38.460Z,2.03
2022-10-04T12:00:16.579Z,2.40
2022-10-04T12:03:17.882Z,1.70
2022-10-04T12:06:23.622Z,1.67
2022-10-04T12:09:05.671Z,2.33
2022-10-04T12:12:18.009Z,2.40
2022-10-04T12:15:04.342Z,2.78
2022-10-04T12:18:05.193Z,2.58
2022-10-04T12:20:59.038Z,2.85
2022-10-04T12:24:16.376Z,2.67
2022-10-04T12:27:24.605Z,2.80
2022-10-04T12:30:20.733Z,2.78
2022-10-04T12:33:01.640Z,2.97
2022-10-04T12:35:40.957Z,2.70
2022-10-04T12:38:36.185Z,2.78
2022-10-04T12:41:11.854Z,2.80
2022-10-04T12:43:51.049Z,3.33
2022-10-04T12:46:34.935Z,2.55
2022-10-04T12:49:18.263Z,2.58
2022-10-04T12:51:53.529Z,2.50
2022-10-04T12:54:34.725Z,2.40
2022-10-04T12:57:16.238Z,2.38
2022-10-04T12:59:54.887Z,2.63
2022-10-04T13:02:35.975Z,2.92
2022-10-04T13:05:12.673Z,3.58
2022-10-04T13:08:08.394Z,3.10
2022-10-04T13:10:47.962Z,2.80
2022-10-04T13:13:55.093Z,3.30
2022-10-04T13:19:29.758Z,3.05
2022-10-04T13:22:31.885Z,3.45
2022-10-04T13:25:18.224Z,2.90
2022-10-04T13:27:50.646Z,2.33
2022-10-04T13:30:26.275Z,2.83
2022-10-04T13:33:00.159Z,2.20
2022-10-04T13:35:36.751Z,2.38
2022-10-04T13:38:29.352Z,2.72
2022-10-04T13:41:10.475Z,2.83
2022-10-04T13:44:08.558Z,2.50
2022-10-04T13:46:45.773Z,2.50
2022-10-04T13:49:35.515Z,2.55
2022-10-04T13:52:35.489Z,2.00
2022-10-04T13:55:41.422Z,2.45
2022-10-04T13:58:22.829Z,2.25
2022-10-04T14:01:16.765Z,2.40
2022-10-04T14:04:03.606Z,1.95
2022-10-04T14:07:12.321Z,2.50
2022-10-04T14:10:00.625Z,2.45
2022-10-04T14:12:59.337Z,2.33
2022-10-04T14:16:04.045Z,2.25
2022-10-04T14:19:33.988Z,2.42
2022-10-04T14:22:42.951Z,2.63
2022-10-04T14:25:57.152Z,2.60
2022-10-04T14:29:03.529Z,2.72
2022-10-04T14:31:59.491Z,2.20
2022-10-04T14:35:02.746Z,2.78
2022-10-04T14:38:10.857Z,2.97
2022-10-04T14:41:11.423Z,2.80
2022-10-04T14:44:30.194Z,2.88
2022-10-04T14:47:25.952Z,2.78
2022-10-04T14:50:35.367Z,2.78
2022-10-04T14:53:24.020Z,2.40
2022-10-04T14:56:29.575Z,2.40
2022-10-04T14:59:19.766Z,2.30
2022-10-04T15:02:38.241Z,2.42
2022-10-04T15:05:32.370Z,2.33
2022-10-04T15:08:42.761Z,2.63
2022-10-04T15:11:22.266Z,2.97
2022-10-04T15:14:03.026Z,2.53
2022-10-04T15:17:00.611Z,2.70
2022-10-04T15:19:48.565Z,2.60
2022-10-04T15:22:50.386Z,3.40
2022-10-04T15:25:55.330Z,3.30
2022-10-04T15:29:00.867Z,2.80
2022-10-04T15:31:50.959Z,2.47
2022-10-04T15:34:34.453Z,2.47
2022-10-04T15:37:31.350Z,2.70
2022-10-04T15:40:28.228Z,2.65
2022-10-04T15:43:25.496Z,2.92
2022-10-04T15:46:48.589Z,2.65
2022-10-04T15:49:31.140Z,2.85
2022-10-04T15:52:13.380Z,2.47
2022-10-04T15:55:11.548Z,2.63
2022-10-04T15:58:10.594Z,3.17
2022-10-04T16:00:56.710Z,2.90
2022-10-04T16:03:42.246Z,2.58
2022-10-04T16:06:28.985Z,3.55
2022-10-04T16:09:14.151Z,3.55
2022-10-04T16:11:56.346Z,3.85
2022-10-04T16:15:13.781Z,3.42
2022-10-04T16:18:03.810Z,3.65
2022-10-04T16:21:06.870Z,3.78
2022-10-04T16:23:50.609Z,3.47
2022-10-04T16:26:57.074Z,3.38
2022-10-04T16:30:24.971Z,3.25
2022-10-04T16:33:06.975Z,3.40
2022-10-04T16:35:44.457Z,3.45
2022-10-04T16:38:27.367Z,3.13
2022-10-04T16:41:13.234Z,3.60
2022-10-04T16:43:54.793Z,3.20
2022-10-04T16:46:39.471Z,3.05
2022-10-04T16:49:41.211Z,3.50
2022-10-04T16:52:48.610Z,3.72
2022-10-04T16:55:40.508Z,3.80
2022-10-04T16:58:54.227Z,3.90
2022-10-04T17:02:04.039Z,3.90
2022-10-04T17:05:06.639Z,3.30
2022-10-04T17:08:04.509Z,3.93
2022-10-04T17:10:45.217Z,3.80
2022-10-04T17:13:33.257Z,4.70
2022-10-04T17:16:12.060Z,5.30
2022-10-04T17:18:55.731Z,6.20
2022-10-04T17:21:49.673Z,5.80
2022-10-04T17:24:44.392Z,6.40
2022-10-04T17:27:27.626Z,7.10
2022-10-04T17:30:17.885Z,8.03
2022-10-04T17:33:35.318Z,7.20
2022-10-04T17:36:43.510Z,5.87
2022-10-04T17:39:40.087Z,6.20
2022-10-04T17:42:27.750Z,5.70
2022-10-04T17:45:18.038Z,5.87
2022-10-04T17:48:17.480Z,5.27
2022-10-04T17:51:14.106Z,6.00
2022-10-04T17:54:04.436Z,5.80
2022-10-04T17:56:53.631Z,5.70
2022-10-04T17:59:31.403Z,5.20
2022-10-04T18:02:12.689Z,4.77
2022-10-04T18:05:03.250Z,5.20
2022-10-04T18:07:50.702Z,4.30
2022-10-04T18:10:44.693Z,4.10
2022-10-04T18:13:33.859Z,4.40
2022-10-04T18:16:19.088Z,3.80
2022-10-04T18:18:47.982Z,3.77
2022-10-04T18:21:27.202Z,3.80
2022-10-04T18:24:20.216Z,4.27
2022-10-04T18:27:11.987Z,4.00
2022-10-04T18:30:18.470Z,4.20
2022-10-04T18:33:00.742Z,4.00
2022-10-04T18:36:02.203Z,3.50
2022-10-04T18:38:40.552Z,4.00
2022-10-04T18:41:44.973Z,3.80
2022-10-04T18:44:47.214Z,3.90
2022-10-04T18:50:32.139Z,5.00
2022-10-04T18:53:25.503Z,4.37
2022-10-04T18:55:58.759Z,4.80
2022-10-04T18:59:08.260Z,4.33
2022-10-04T19:02:00.825Z,4.87
2022-10-04T19:04:48.411Z,4.30
2022-10-04T19:07:17.702Z,4.03
2022-10-04T19:09:59.820Z,4.63
2022-10-04T19:12:38.451Z,4.37
2022-10-04T19:15:17.166Z,4.23
2022-10-04T19:17:55.797Z,4.90
2022-10-04T19:20:32.031Z,4.07
2022-10-04T19:23:08.794Z,5.07
2022-10-04T19:25:39.167Z,4.43
2022-10-04T19:28:10.727Z,5.00
2022-10-04T19:30:54.214Z,5.07
2022-10-04T19:33:28.767Z,4.77
2022-10-04T19:36:12.442Z,4.83
2022-10-04T19:38:51.741Z,5.10
2022-10-04T19:41:32.981Z,4.53
2022-10-04T19:44:05.545Z,4.47
2022-10-04T19:46:42.953Z,4.17
2022-10-04T19:49:20.624Z,4.23
2022-10-04T19:51:51.611Z,4.43
2022-10-04T19:54:27.062Z,4.47
2022-10-04T19:56:57.281Z,4.43
2022-10-04T19:59:31.428Z,4.93
2022-10-04T20:01:59.238Z,4.50
2022-10-04T20:04:38.188Z,4.60
2022-10-04T20:07:18.199Z,5.00
2022-10-04T20:09:54.655Z,4.80
2022-10-04T20:12:41.195Z,4.73
2022-10-04T20:15:43.987Z,4.77
2022-10-04T20:19:03.026Z,4.47
2022-10-04T20:21:31.543Z,4.90
2022-10-04T20:24:01.589Z,4.63
2022-10-04T20:26:54.523Z,4.33
2022-10-04T20:30:04.542Z,3.90
2022-10-04T20:32:56.407Z,4.00
2022-10-04T20:36:03.749Z,4.13
2022-10-04T20:38:45.035Z,3.77
2022-10-04T20:42:02.356Z,3.70
2022-10-04T20:44:55.537Z,3.40
2022-10-04T20:47:43.110Z,3.60
2022-10-04T20:50:25.656Z,3.63
2022-10-04T20:53:02.941Z,3.47
2022-10-04T20:55:32.199Z,4.57
2022-10-04T20:58:03.791Z,3.93
2022-10-04T21:00:56.446Z,3.20
2022-10-04T21:03:31.074Z,3.57
2022-10-04T21:06:13.320Z,3.10
2022-10-04T21:08:41.726Z,3.37
2022-10-04T21:11:25.152Z,2.70
2022-10-04T21:14:03.606Z,3.20
2022-10-04T21:16:55.597Z,2.70
2022-10-04T21:19:47.476Z,2.73
2022-10-04T21:22:48.730Z,2.60
2022-10-04T21:25:50.466Z,2.57
2022-10-04T21:28:38.585Z,3.00
2022-10-04T21:31:21.441Z,2.53
2022-10-04T21:33:55.622Z,2.80
2022-10-04T21:36:36.010Z,3.00
2022-10-04T21:39:10.819Z,2.87
2022-10-04T21:41:43.108Z,2.63
2022-10-04T21:44:22.015Z,2.57
2022-10-04T21:47:01.204Z,2.97
2022-10-04T21:49:29.744Z,2.77
2022-10-04T21:52:03.425Z,2.43
2022-10-04T21:54:42.122Z,3.17
2022-10-04T21:57:22.378Z,2.67
2022-10-04T21:59:58.342Z,2.90
2022-10-04T22:02:33.378Z,3.00
2022-10-04T22:05:15.223Z,3.00
2022-10-04T22:07:54.491Z,2.87
2022-10-04T22:10:30.124Z,2.70
2022-10-04T22:13:03.339Z,3.20
2022-10-04T22:15:46.130Z,2.90
2022-10-04T22:18:26.165Z,3.00
2022-10-04T22:21:00.841Z,2.80
2022-10-04T22:23:38.407Z,2.60
2022-10-04T22:26:20.334Z,2.67
2022-10-04T22:28:57.693Z,2.77
2022-10-04T22:31:33.959Z,2.90
2022-10-04T22:34:18.751Z,2.87
2022-10-04T22:36:55.010Z,2.47
2022-10-04T22:39:41.695Z,2.60
2022-10-04T22:42:19.778Z,3.07
2022-10-04T22:45:05.018Z,2.93
2022-10-04T22:47:42.303Z,2.80
2022-10-04T22:50:42.892Z,2.80
2022-10-04T22:53:14.852Z,2.57
2022-10-04T22:55:50.371Z,2.70
2022-10-04T22:58:21.295Z,3.03
2022-10-04T23:00:49.195Z,2.80
2022-10-04T23:03:26.898Z,3.30
2022-10-04T23:05:55.099Z,2.43
2022-10-04T23:08:22.260Z,2.90
2022-10-04T23:10:53.394Z,3.37
2022-10-04T23:13:24.567Z,3.17
2022-10-04T23:15:52.187Z,2.77
2022-10-04T23:18:19.460Z,2.93
2022-10-04T23:20:57.932Z,3.00
2022-10-04T23:23:28.033Z,3.13
2022-10-04T23:25:55.149Z,3.10
2022-10-04T23:28:22.581Z,3.37
2022-10-04T23:31:00.250Z,3.47
2022-10-04T23:33:27.693Z,2.90
2022-10-04T23:35:55.271Z,2.97
2022-10-04T23:38:23.402Z,3.20
2022-10-04T23:40:51.873Z,3.03
2022-10-04T23:43:24.813Z,2.83
2022-10-04T23:45:52.276Z,3.10
2022-10-04T23:48:23.486Z,3.70
2022-10-04T23:50:51.645Z,3.47
2022-10-04T23:53:24.466Z,3.27
2022-10-04T23:55:53.433Z,3.00
2022-10-04T23:58:23.153Z,3.50
